sensor_id;sensor_type;location;lat;lon;timestamp;temperature;humidity
11650;DHT22;5881;48.522;7.682;2023-12-20T00:01:22;4.90;99.90
11650;DHT22;5881;48.522;7.682;2023-12-20T00:03:47;4.90;99.90
11650;DHT22;5881;48.522;7.682;2023-12-20T00:06:13;4.90;99.90
11650;DHT22;5881;48.522;7.682;2023-12-20T00:08:39;4.90;1.00
11650;DHT22;5881;48.522;7.682;2023-12-20T00:11:04;4.90;99.90
11650;DHT22;5881;48.522;7.682;2023-12-20T00:13:30;4.90;99.90
11650;DHT22;5881;48.522;7.682;2023-12-20T00:15:55;4.90;99.90
11650;DHT22;5881;48.522;7.682;2023-12-20T00:18:21;4.90;99.90
11650;DHT22;5881;48.522;7.682;2023-12-20T00:20:47;4.90;99.90
11650;DHT22;5881;48.522;7.682;2023-12-20T00:23:12;4.90;99.90
11650;DHT22;5881;48.522;7.682;2023-12-20T00:25:38;5.00;99.90
11650;DHT22;5881;48.522;7.682;2023-12-20T00:28:03;4.90;99.90
11650;DHT22;5881;48.522;7.682;2023-12-20T00:30:29;4.90;99.90
11650;DHT22;5881;48.522;7.682;2023-12-20T00:32:55;4.90;99.90
11650;DHT22;5881;48.522;7.682;2023-12-20T00:35:21;4.90;99.90
11650;DHT22;5881;48.522;7.682;2023-12-20T00:37:47;4.90;99.90
11650;DHT22;5881;48.522;7.682;2023-12-20T00:40:12;4.90;99.90
11650;DHT22;5881;48.522;7.682;2023-12-20T00:42:38;4.90;99.90
11650;DHT22;5881;48.522;7.682;2023-12-20T00:45:04;4.90;99.90
11650;DHT22;5881;48.522;7.682;2023-12-20T00:47:31;4.90;99.90
11650;DHT22;5881;48.522;7.682;2023-12-20T00:49:57;4.90;99.90
11650;DHT22;5881;48.522;7.682;2023-12-20T00:52:23;4.90;99.90
11650;DHT22;5881;48.522;7.682;2023-12-20T00:54:49;4.90;99.90
11650;DHT22;5881;48.522;7.682;2023-12-20T00:57:14;4.90;99.90
11650;DHT22;5881;48.522;7.682;2023-12-20T00:59:40;4.90;99.90
11650;DHT22;5881;48.522;7.682;2023-12-20T01:02:06;5.10;99.90
11650;DHT22;5881;48.522;7.682;2023-12-20T01:04:32;4.90;99.90
11650;DHT22;5881;48.522;7.682;2023-12-20T01:06:57;4.90;99.90
11650;DHT22;5881;48.522;7.682;2023-12-20T01:09:23;4.90;99.90
11650;DHT22;5881;48.522;7.682;2023-12-20T01:11:52;5.00;99.90
11650;DHT22;5881;48.522;7.682;2023-12-20T01:14:17;4.90;99.90
11650;DHT22;5881;48.522;7.682;2023-12-20T01:16:43;4.90;99.90
11650;DHT22;5881;48.522;7.682;2023-12-20T01:19:08;5.00;99.90
11650;DHT22;5881;48.522;7.682;2023-12-20T01:21:34;4.90;99.90
11650;DHT22;5881;48.522;7.682;2023-12-20T01:24:00;4.90;99.90
11650;DHT22;5881;48.522;7.682;2023-12-20T01:26:25;5.00;99.90
11650;DHT22;5881;48.522;7.682;2023-12-20T01:28:51;4.90;99.90
11650;DHT22;5881;48.522;7.682;2023-12-20T01:31:16;4.90;99.90
11650;DHT22;5881;48.522;7.682;2023-12-20T01:33:42;4.90;99.90
11650;DHT22;5881;48.522;7.682;2023-12-20T01:36:08;4.90;99.90
11650;DHT22;5881;48.522;7.682;2023-12-20T01:38:33;4.90;99.90
11650;DHT22;5881;48.522;7.682;2023-12-20T01:40:59;5.00;99.90
11650;DHT22;5881;48.522;7.682;2023-12-20T01:43:25;5.00;99.90
11650;DHT22;5881;48.522;7.682;2023-12-20T01:45:51;5.10;99.90
11650;DHT22;5881;48.522;7.682;2023-12-20T01:48:18;5.00;99.90
11650;DHT22;5881;48.522;7.682;2023-12-20T01:50:45;5.00;99.90
11650;DHT22;5881;48.522;7.682;2023-12-20T01:53:12;5.00;99.90
11650;DHT22;5881;48.522;7.682;2023-12-20T01:55:39;5.00;99.90
11650;DHT22;5881;48.522;7.682;2023-12-20T01:58:09;5.00;99.90
11650;DHT22;5881;48.522;7.682;2023-12-20T02:00:36;5.00;99.90
11650;DHT22;5881;48.522;7.682;2023-12-20T02:03:02;5.10;99.90
11650;DHT22;5881;48.522;7.682;2023-12-20T02:05:30;5.10;99.90
11650;DHT22;5881;48.522;7.682;2023-12-20T02:07:56;5.10;99.90
11650;DHT22;5881;48.522;7.682;2023-12-20T02:10:22;5.10;99.90
11650;DHT22;5881;48.522;7.682;2023-12-20T02:12:48;5.10;99.90
11650;DHT22;5881;48.522;7.682;2023-12-20T02:15:14;5.10;99.90
11650;DHT22;5881;48.522;7.682;2023-12-20T02:17:39;5.10;99.90
11650;DHT22;5881;48.522;7.682;2023-12-20T02:20:06;5.20;99.90
11650;DHT22;5881;48.522;7.682;2023-12-20T02:22:31;5.20;99.90
11650;DHT22;5881;48.522;7.682;2023-12-20T02:24:57;5.20;99.90
11650;DHT22;5881;48.522;7.682;2023-12-20T02:27:23;5.20;99.90
11650;DHT22;5881;48.522;7.682;2023-12-20T02:29:50;5.20;99.90
11650;DHT22;5881;48.522;7.682;2023-12-20T02:32:17;5.20;99.90
11650;DHT22;5881;48.522;7.682;2023-12-20T02:34:43;5.20;99.90
11650;DHT22;5881;48.522;7.682;2023-12-20T02:37:08;5.20;99.90
11650;DHT22;5881;48.522;7.682;2023-12-20T02:39:34;5.20;99.90
11650;DHT22;5881;48.522;7.682;2023-12-20T02:42:00;5.20;99.90
11650;DHT22;5881;48.522;7.682;2023-12-20T02:44:25;5.20;99.90
11650;DHT22;5881;48.522;7.682;2023-12-20T02:46:51;5.20;99.90
11650;DHT22;5881;48.522;7.682;2023-12-20T02:49:16;5.20;99.90
11650;DHT22;5881;48.522;7.682;2023-12-20T02:51:42;5.20;99.90
11650;DHT22;5881;48.522;7.682;2023-12-20T02:54:08;5.20;99.90
11650;DHT22;5881;48.522;7.682;2023-12-20T02:56:33;5.20;99.90
11650;DHT22;5881;48.522;7.682;2023-12-20T02:58:59;5.20;99.90
11650;DHT22;5881;48.522;7.682;2023-12-20T03:01:25;5.30;99.90
11650;DHT22;5881;48.522;7.682;2023-12-20T03:03:50;5.20;99.90
11650;DHT22;5881;48.522;7.682;2023-12-20T03:06:19;5.30;99.90
11650;DHT22;5881;48.522;7.682;2023-12-20T03:08:45;5.20;99.90
11650;DHT22;5881;48.522;7.682;2023-12-20T03:11:11;5.30;99.90
11650;DHT22;5881;48.522;7.682;2023-12-20T03:13:37;5.30;99.90
11650;DHT22;5881;48.522;7.682;2023-12-20T03:16:13;5.20;99.90
11650;DHT22;5881;48.522;7.682;2023-12-20T03:18:39;5.30;99.90
11650;DHT22;5881;48.522;7.682;2023-12-20T03:21:05;5.30;99.90
11650;DHT22;5881;48.522;7.682;2023-12-20T03:23:31;5.30;99.90
11650;DHT22;5881;48.522;7.682;2023-12-20T03:25:58;5.30;99.90
11650;DHT22;5881;48.522;7.682;2023-12-20T03:28:24;5.30;99.90
11650;DHT22;5881;48.522;7.682;2023-12-20T03:30:50;5.30;99.90
11650;DHT22;5881;48.522;7.682;2023-12-20T03:33:15;5.30;99.90
11650;DHT22;5881;48.522;7.682;2023-12-20T03:35:41;5.40;99.90
11650;DHT22;5881;48.522;7.682;2023-12-20T03:38:07;5.30;99.90
11650;DHT22;5881;48.522;7.682;2023-12-20T03:40:33;5.30;99.90
11650;DHT22;5881;48.522;7.682;2023-12-20T03:42:58;5.30;99.90
11650;DHT22;5881;48.522;7.682;2023-12-20T03:45:24;5.30;99.90
11650;DHT22;5881;48.522;7.682;2023-12-20T03:47:50;5.30;99.90
11650;DHT22;5881;48.522;7.682;2023-12-20T03:50:21;5.30;99.90
11650;DHT22;5881;48.522;7.682;2023-12-20T03:52:47;5.30;99.90
11650;DHT22;5881;48.522;7.682;2023-12-20T03:55:12;5.40;99.90
11650;DHT22;5881;48.522;7.682;2023-12-20T03:57:38;5.40;99.90
11650;DHT22;5881;48.522;7.682;2023-12-20T04:00:05;5.40;99.90
11650;DHT22;5881;48.522;7.682;2023-12-20T04:02:31;5.40;99.90
11650;DHT22;5881;48.522;7.682;2023-12-20T04:04:56;5.30;99.90
11650;DHT22;5881;48.522;7.682;2023-12-20T04:07:22;5.30;99.90
11650;DHT22;5881;48.522;7.682;2023-12-20T04:09:47;5.40;99.90
11650;DHT22;5881;48.522;7.682;2023-12-20T04:12:13;5.40;99.90
11650;DHT22;5881;48.522;7.682;2023-12-20T04:14:39;5.50;99.90
11650;DHT22;5881;48.522;7.682;2023-12-20T04:17:04;5.40;99.90
11650;DHT22;5881;48.522;7.682;2023-12-20T04:19:30;5.40;99.90
11650;DHT22;5881;48.522;7.682;2023-12-20T04:21:55;5.50;99.90
11650;DHT22;5881;48.522;7.682;2023-12-20T04:24:21;5.50;99.90
11650;DHT22;5881;48.522;7.682;2023-12-20T04:26:48;5.50;99.90
11650;DHT22;5881;48.522;7.682;2023-12-20T04:29:13;5.40;99.90
11650;DHT22;5881;48.522;7.682;2023-12-20T04:31:39;5.40;99.90
11650;DHT22;5881;48.522;7.682;2023-12-20T04:34:04;5.40;99.90
11650;DHT22;5881;48.522;7.682;2023-12-20T04:36:30;5.40;99.90
11650;DHT22;5881;48.522;7.682;2023-12-20T04:38:56;5.40;99.90
11650;DHT22;5881;48.522;7.682;2023-12-20T04:41:21;5.40;99.90
11650;DHT22;5881;48.522;7.682;2023-12-20T04:43:47;5.60;99.90
11650;DHT22;5881;48.522;7.682;2023-12-20T04:46:12;5.40;99.90
11650;DHT22;5881;48.522;7.682;2023-12-20T04:48:38;5.40;99.90
11650;DHT22;5881;48.522;7.682;2023-12-20T04:51:04;5.40;99.90
11650;DHT22;5881;48.522;7.682;2023-12-20T04:53:30;5.40;99.90
11650;DHT22;5881;48.522;7.682;2023-12-20T04:55:55;5.40;99.90
11650;DHT22;5881;48.522;7.682;2023-12-20T04:58:21;5.50;99.90
11650;DHT22;5881;48.522;7.682;2023-12-20T05:00:46;5.50;99.90
11650;DHT22;5881;48.522;7.682;2023-12-20T05:03:12;5.50;99.90
11650;DHT22;5881;48.522;7.682;2023-12-20T05:05:38;5.50;99.90
11650;DHT22;5881;48.522;7.682;2023-12-20T05:08:04;5.50;99.90
11650;DHT22;5881;48.522;7.682;2023-12-20T05:10:30;5.50;99.90
11650;DHT22;5881;48.522;7.682;2023-12-20T05:12:55;5.60;99.90
11650;DHT22;5881;48.522;7.682;2023-12-20T05:15:21;5.60;99.90
11650;DHT22;5881;48.522;7.682;2023-12-20T05:17:47;5.70;99.90
11650;DHT22;5881;48.522;7.682;2023-12-20T05:20:12;5.70;99.90
11650;DHT22;5881;48.522;7.682;2023-12-20T05:22:38;5.80;99.90
11650;DHT22;5881;48.522;7.682;2023-12-20T05:25:04;5.70;99.90
11650;DHT22;5881;48.522;7.682;2023-12-20T05:27:30;5.70;99.90
11650;DHT22;5881;48.522;7.682;2023-12-20T05:29:55;5.70;99.90
11650;DHT22;5881;48.522;7.682;2023-12-20T05:32:23;5.70;99.90
11650;DHT22;5881;48.522;7.682;2023-12-20T05:34:49;5.60;99.90
11650;DHT22;5881;48.522;7.682;2023-12-20T05:37:14;5.60;99.90
11650;DHT22;5881;48.522;7.682;2023-12-20T05:39:40;5.60;99.90
11650;DHT22;5881;48.522;7.682;2023-12-20T05:42:05;5.50;99.90
11650;DHT22;5881;48.522;7.682;2023-12-20T05:44:31;5.60;99.90
11650;DHT22;5881;48.522;7.682;2023-12-20T05:46:57;5.60;99.90
11650;DHT22;5881;48.522;7.682;2023-12-20T05:49:22;5.70;99.90
11650;DHT22;5881;48.522;7.682;2023-12-20T05:51:48;5.60;99.90
11650;DHT22;5881;48.522;7.682;2023-12-20T05:54:13;5.50;99.90
11650;DHT22;5881;48.522;7.682;2023-12-20T05:56:39;5.60;99.90
11650;DHT22;5881;48.522;7.682;2023-12-20T05:59:04;5.50;99.90
11650;DHT22;5881;48.522;7.682;2023-12-20T06:01:30;5.50;99.90
11650;DHT22;5881;48.522;7.682;2023-12-20T06:03:56;5.50;99.90
11650;DHT22;5881;48.522;7.682;2023-12-20T06:06:21;5.60;99.90
11650;DHT22;5881;48.522;7.682;2023-12-20T06:08:47;5.50;99.90
11650;DHT22;5881;48.522;7.682;2023-12-20T06:11:12;5.60;99.90
11650;DHT22;5881;48.522;7.682;2023-12-20T06:13:39;5.70;99.90
11650;DHT22;5881;48.522;7.682;2023-12-20T06:16:05;5.70;99.90
11650;DHT22;5881;48.522;7.682;2023-12-20T06:18:32;5.80;99.90
11650;DHT22;5881;48.522;7.682;2023-12-20T06:20:58;5.70;99.90
11650;DHT22;5881;48.522;7.682;2023-12-20T06:23:23;5.60;99.90
11650;DHT22;5881;48.522;7.682;2023-12-20T06:25:49;5.60;99.90
11650;DHT22;5881;48.522;7.682;2023-12-20T06:28:15;5.60;99.90
11650;DHT22;5881;48.522;7.682;2023-12-20T06:30:41;5.60;99.90
11650;DHT22;5881;48.522;7.682;2023-12-20T06:33:06;5.50;99.90
11650;DHT22;5881;48.522;7.682;2023-12-20T06:35:32;5.50;99.90
11650;DHT22;5881;48.522;7.682;2023-12-20T06:37:58;5.60;99.90
11650;DHT22;5881;48.522;7.682;2023-12-20T06:40:23;5.60;99.90
11650;DHT22;5881;48.522;7.682;2023-12-20T06:42:49;5.70;99.90
11650;DHT22;5881;48.522;7.682;2023-12-20T06:45:15;5.80;99.90
11650;DHT22;5881;48.522;7.682;2023-12-20T06:47:41;5.80;99.90
11650;DHT22;5881;48.522;7.682;2023-12-20T06:50:06;5.80;99.90
11650;DHT22;5881;48.522;7.682;2023-12-20T06:52:34;5.80;99.90
11650;DHT22;5881;48.522;7.682;2023-12-20T06:55:00;5.90;99.90
11650;DHT22;5881;48.522;7.682;2023-12-20T06:57:26;5.90;99.90
11650;DHT22;5881;48.522;7.682;2023-12-20T06:59:51;5.90;99.90
11650;DHT22;5881;48.522;7.682;2023-12-20T07:02:17;5.90;99.90
11650;DHT22;5881;48.522;7.682;2023-12-20T07:04:43;5.90;99.90
11650;DHT22;5881;48.522;7.682;2023-12-20T07:07:08;5.80;99.90
11650;DHT22;5881;48.522;7.682;2023-12-20T07:09:34;5.80;99.90
11650;DHT22;5881;48.522;7.682;2023-12-20T07:12:00;5.80;99.90
11650;DHT22;5881;48.522;7.682;2023-12-20T07:14:25;5.70;99.90
11650;DHT22;5881;48.522;7.682;2023-12-20T07:16:51;5.80;99.90
11650;DHT22;5881;48.522;7.682;2023-12-20T07:19:17;5.70;99.90
11650;DHT22;5881;48.522;7.682;2023-12-20T07:21:42;5.70;99.90
11650;DHT22;5881;48.522;7.682;2023-12-20T07:24:08;5.70;99.90
11650;DHT22;5881;48.522;7.682;2023-12-20T07:26:35;5.70;99.90
11650;DHT22;5881;48.522;7.682;2023-12-20T07:29:00;5.90;99.90
11650;DHT22;5881;48.522;7.682;2023-12-20T07:31:26;5.80;99.90
11650;DHT22;5881;48.522;7.682;2023-12-20T07:33:52;5.80;99.90
11650;DHT22;5881;48.522;7.682;2023-12-20T07:36:19;5.80;99.90
11650;DHT22;5881;48.522;7.682;2023-12-20T07:38:44;5.80;99.90
11650;DHT22;5881;48.522;7.682;2023-12-20T07:41:10;5.70;99.90
11650;DHT22;5881;48.522;7.682;2023-12-20T07:43:36;5.70;99.90
11650;DHT22;5881;48.522;7.682;2023-12-20T07:46:06;5.70;99.90
11650;DHT22;5881;48.522;7.682;2023-12-20T07:48:32;5.80;99.90
11650;DHT22;5881;48.522;7.682;2023-12-20T07:50:57;5.80;99.90
11650;DHT22;5881;48.522;7.682;2023-12-20T07:53:23;5.70;99.90
11650;DHT22;5881;48.522;7.682;2023-12-20T07:55:48;5.60;99.90
11650;DHT22;5881;48.522;7.682;2023-12-20T07:58:14;5.60;99.90
11650;DHT22;5881;48.522;7.682;2023-12-20T08:00:39;5.60;99.90
11650;DHT22;5881;48.522;7.682;2023-12-20T08:03:05;5.50;99.90
11650;DHT22;5881;48.522;7.682;2023-12-20T08:05:31;5.40;99.90
11650;DHT22;5881;48.522;7.682;2023-12-20T08:07:56;5.40;99.90
11650;DHT22;5881;48.522;7.682;2023-12-20T08:10:22;5.40;99.90
11650;DHT22;5881;48.522;7.682;2023-12-20T08:12:47;5.50;99.90
11650;DHT22;5881;48.522;7.682;2023-12-20T08:15:13;5.50;99.90
11650;DHT22;5881;48.522;7.682;2023-12-20T08:17:39;5.40;99.90
11650;DHT22;5881;48.522;7.682;2023-12-20T08:20:05;5.70;99.90
11650;DHT22;5881;48.522;7.682;2023-12-20T08:22:31;5.50;99.90
11650;DHT22;5881;48.522;7.682;2023-12-20T08:24:57;5.50;99.90
11650;DHT22;5881;48.522;7.682;2023-12-20T08:27:22;5.50;99.90
11650;DHT22;5881;48.522;7.682;2023-12-20T08:29:48;5.50;99.90
11650;DHT22;5881;48.522;7.682;2023-12-20T08:32:15;5.40;99.90
11650;DHT22;5881;48.522;7.682;2023-12-20T08:34:40;5.50;99.90
11650;DHT22;5881;48.522;7.682;2023-12-20T08:37:13;5.70;99.90
11650;DHT22;5881;48.522;7.682;2023-12-20T08:39:39;7.90;99.90
11650;DHT22;5881;48.522;7.682;2023-12-20T08:42:05;9.00;99.90
11650;DHT22;5881;48.522;7.682;2023-12-20T08:44:30;10.00;99.90
11650;DHT22;5881;48.522;7.682;2023-12-20T08:46:56;10.80;99.90
11650;DHT22;5881;48.522;7.682;2023-12-20T08:49:22;9.90;99.90
11650;DHT22;5881;48.522;7.682;2023-12-20T08:51:48;9.40;99.90
11650;DHT22;5881;48.522;7.682;2023-12-20T08:54:13;8.70;99.90
11650;DHT22;5881;48.522;7.682;2023-12-20T08:56:39;8.60;99.90
11650;DHT22;5881;48.522;7.682;2023-12-20T08:59:05;10.30;99.90
11650;DHT22;5881;48.522;7.682;2023-12-20T09:01:30;11.90;99.90
11650;DHT22;5881;48.522;7.682;2023-12-20T09:03:56;11.90;99.90
11650;DHT22;5881;48.522;7.682;2023-12-20T09:06:21;12.10;99.90
11650;DHT22;5881;48.522;7.682;2023-12-20T09:08:47;12.10;99.90
11650;DHT22;5881;48.522;7.682;2023-12-20T09:11:13;11.90;99.90
11650;DHT22;5881;48.522;7.682;2023-12-20T09:13:39;11.90;99.90
11650;DHT22;5881;48.522;7.682;2023-12-20T09:16:05;11.70;99.90
11650;DHT22;5881;48.522;7.682;2023-12-20T09:18:30;12.00;99.90
11650;DHT22;5881;48.522;7.682;2023-12-20T09:20:56;11.70;99.90
11650;DHT22;5881;48.522;7.682;2023-12-20T09:23:21;11.50;99.90
11650;DHT22;5881;48.522;7.682;2023-12-20T09:25:47;10.20;99.90
11650;DHT22;5881;48.522;7.682;2023-12-20T09:28:13;9.50;99.90
11650;DHT22;5881;48.522;7.682;2023-12-20T09:30:38;8.90;99.90
11650;DHT22;5881;48.522;7.682;2023-12-20T09:33:05;8.70;99.90
11650;DHT22;5881;48.522;7.682;2023-12-20T09:35:32;8.40;99.90
11650;DHT22;5881;48.522;7.682;2023-12-20T09:37:58;8.30;99.90
11650;DHT22;5881;48.522;7.682;2023-12-20T09:40:26;8.20;99.90
11650;DHT22;5881;48.522;7.682;2023-12-20T09:42:56;8.30;99.90
11650;DHT22;5881;48.522;7.682;2023-12-20T09:45:22;8.10;99.90
11650;DHT22;5881;48.522;7.682;2023-12-20T09:47:50;8.10;99.90
11650;DHT22;5881;48.522;7.682;2023-12-20T09:50:18;7.80;99.90
11650;DHT22;5881;48.522;7.682;2023-12-20T09:52:47;7.90;99.90
11650;DHT22;5881;48.522;7.682;2023-12-20T09:55:17;8.00;99.90
11650;DHT22;5881;48.522;7.682;2023-12-20T09:57:42;8.00;99.90
11650;DHT22;5881;48.522;7.682;2023-12-20T10:00:08;8.00;99.90
11650;DHT22;5881;48.522;7.682;2023-12-20T10:02:35;7.90;99.90
11650;DHT22;5881;48.522;7.682;2023-12-20T10:05:06;8.00;99.90
11650;DHT22;5881;48.522;7.682;2023-12-20T10:07:34;8.00;99.90
11650;DHT22;5881;48.522;7.682;2023-12-20T10:10:01;8.10;99.90
11650;DHT22;5881;48.522;7.682;2023-12-20T10:12:27;8.10;99.90
11650;DHT22;5881;48.522;7.682;2023-12-20T10:14:53;8.30;99.90
11650;DHT22;5881;48.522;7.682;2023-12-20T10:17:18;8.30;99.90
11650;DHT22;5881;48.522;7.682;2023-12-20T10:19:44;8.30;99.90
11650;DHT22;5881;48.522;7.682;2023-12-20T10:22:10;8.00;99.90
11650;DHT22;5881;48.522;7.682;2023-12-20T10:24:35;7.90;99.90
11650;DHT22;5881;48.522;7.682;2023-12-20T10:27:05;8.10;99.90
11650;DHT22;5881;48.522;7.682;2023-12-20T10:29:35;7.90;99.90
11650;DHT22;5881;48.522;7.682;2023-12-20T10:34:50;7.60;99.90
11650;DHT22;5881;48.522;7.682;2023-12-20T10:37:16;7.60;99.90
11650;DHT22;5881;48.522;7.682;2023-12-20T10:39:42;7.60;99.90
11650;DHT22;5881;48.522;7.682;2023-12-20T10:42:10;7.80;99.90
11650;DHT22;5881;48.522;7.682;2023-12-20T10:44:36;7.90;99.90
11650;DHT22;5881;48.522;7.682;2023-12-20T10:47:03;7.90;99.90
11650;DHT22;5881;48.522;7.682;2023-12-20T10:49:30;7.90;99.90
11650;DHT22;5881;48.522;7.682;2023-12-20T10:51:57;7.80;99.90
11650;DHT22;5881;48.522;7.682;2023-12-20T10:54:25;7.90;99.90
11650;DHT22;5881;48.522;7.682;2023-12-20T10:56:52;7.90;99.90
11650;DHT22;5881;48.522;7.682;2023-12-20T10:59:20;7.90;99.90
11650;DHT22;5881;48.522;7.682;2023-12-20T11:01:47;7.90;99.90
11650;DHT22;5881;48.522;7.682;2023-12-20T11:04:46;7.90;99.90
11650;DHT22;5881;48.522;7.682;2023-12-20T11:07:17;7.80;99.90
11650;DHT22;5881;48.522;7.682;2023-12-20T11:09:57;7.70;99.90
11650;DHT22;5881;48.522;7.682;2023-12-20T11:14:54;7.60;99.90
11650;DHT22;5881;48.522;7.682;2023-12-20T11:17:26;7.50;99.90
11650;DHT22;5881;48.522;7.682;2023-12-20T11:22:20;7.40;99.90
11650;DHT22;5881;48.522;7.682;2023-12-20T11:24:51;7.30;99.90
11650;DHT22;5881;48.522;7.682;2023-12-20T11:27:19;7.40;99.90
11650;DHT22;5881;48.522;7.682;2023-12-20T11:29:51;7.50;99.90
11650;DHT22;5881;48.522;7.682;2023-12-20T11:34:59;8.50;99.90
11650;DHT22;5881;48.522;7.682;2023-12-20T11:37:35;9.30;99.90
11650;DHT22;5881;48.522;7.682;2023-12-20T11:40:08;9.20;99.90
11650;DHT22;5881;48.522;7.682;2023-12-20T11:42:49;8.60;99.90
11650;DHT22;5881;48.522;7.682;2023-12-20T11:45:19;9.10;99.90
11650;DHT22;5881;48.522;7.682;2023-12-20T11:47:48;10.00;99.90
11650;DHT22;5881;48.522;7.682;2023-12-20T11:50:17;10.70;99.90
11650;DHT22;5881;48.522;7.682;2023-12-20T11:52:43;10.20;99.90
11650;DHT22;5881;48.522;7.682;2023-12-20T11:55:08;9.90;99.90
11650;DHT22;5881;48.522;7.682;2023-12-20T11:57:34;9.40;99.90
11650;DHT22;5881;48.522;7.682;2023-12-20T12:00:01;9.10;99.90
11650;DHT22;5881;48.522;7.682;2023-12-20T12:02:27;8.80;99.90
11650;DHT22;5881;48.522;7.682;2023-12-20T12:04:53;8.70;99.90
11650;DHT22;5881;48.522;7.682;2023-12-20T12:07:19;8.60;99.90
11650;DHT22;5881;48.522;7.682;2023-12-20T12:09:45;8.50;99.90
11650;DHT22;5881;48.522;7.682;2023-12-20T12:12:12;8.40;99.90
11650;DHT22;5881;48.522;7.682;2023-12-20T12:14:38;8.40;99.90
11650;DHT22;5881;48.522;7.682;2023-12-20T12:17:13;8.30;99.90
11650;DHT22;5881;48.522;7.682;2023-12-20T12:19:39;8.10;99.90
11650;DHT22;5881;48.522;7.682;2023-12-20T12:22:10;8.00;99.90
11650;DHT22;5881;48.522;7.682;2023-12-20T12:24:45;8.10;99.90
11650;DHT22;5881;48.522;7.682;2023-12-20T12:27:12;8.20;99.90
11650;DHT22;5881;48.522;7.682;2023-12-20T12:29:37;8.10;99.90
11650;DHT22;5881;48.522;7.682;2023-12-20T12:32:08;8.10;99.90
11650;DHT22;5881;48.522;7.682;2023-12-20T12:34:35;8.20;99.90
11650;DHT22;5881;48.522;7.682;2023-12-20T12:37:01;8.10;99.90
11650;DHT22;5881;48.522;7.682;2023-12-20T12:39:27;8.10;99.90
11650;DHT22;5881;48.522;7.682;2023-12-20T12:41:53;8.20;99.90
11650;DHT22;5881;48.522;7.682;2023-12-20T12:44:19;8.20;99.90
11650;DHT22;5881;48.522;7.682;2023-12-20T12:46:48;8.10;99.90
11650;DHT22;5881;48.522;7.682;2023-12-20T12:49:21;8.20;99.90
11650;DHT22;5881;48.522;7.682;2023-12-20T12:51:47;8.10;99.90
11650;DHT22;5881;48.522;7.682;2023-12-20T12:54:13;8.20;99.90
11650;DHT22;5881;48.522;7.682;2023-12-20T12:56:41;8.30;99.90
11650;DHT22;5881;48.522;7.682;2023-12-20T12:59:06;8.30;99.90
11650;DHT22;5881;48.522;7.682;2023-12-20T13:01:32;8.30;99.90
11650;DHT22;5881;48.522;7.682;2023-12-20T13:03:57;8.30;99.90
11650;DHT22;5881;48.522;7.682;2023-12-20T13:06:26;8.40;99.90
11650;DHT22;5881;48.522;7.682;2023-12-20T13:08:51;8.60;99.90
11650;DHT22;5881;48.522;7.682;2023-12-20T13:11:17;8.60;99.90
11650;DHT22;5881;48.522;7.682;2023-12-20T13:13:42;8.50;99.90
11650;DHT22;5881;48.522;7.682;2023-12-20T13:16:08;8.40;99.90
11650;DHT22;5881;48.522;7.682;2023-12-20T13:18:34;8.30;99.90
11650;DHT22;5881;48.522;7.682;2023-12-20T13:20:59;8.10;99.90
11650;DHT22;5881;48.522;7.682;2023-12-20T13:23:25;8.20;99.90
11650;DHT22;5881;48.522;7.682;2023-12-20T13:25:50;8.00;99.90
11650;DHT22;5881;48.522;7.682;2023-12-20T13:28:16;8.10;99.90
11650;DHT22;5881;48.522;7.682;2023-12-20T13:30:42;8.00;99.90
11650;DHT22;5881;48.522;7.682;2023-12-20T13:33:08;7.90;99.90
11650;DHT22;5881;48.522;7.682;2023-12-20T13:35:34;7.80;99.90
11650;DHT22;5881;48.522;7.682;2023-12-20T13:38:00;7.70;99.90
11650;DHT22;5881;48.522;7.682;2023-12-20T13:40:26;7.70;99.90
11650;DHT22;5881;48.522;7.682;2023-12-20T13:42:51;7.60;99.90
11650;DHT22;5881;48.522;7.682;2023-12-20T13:45:17;7.70;99.90
11650;DHT22;5881;48.522;7.682;2023-12-20T13:47:43;7.70;99.90
11650;DHT22;5881;48.522;7.682;2023-12-20T13:50:08;7.60;99.90
11650;DHT22;5881;48.522;7.682;2023-12-20T13:52:35;7.50;99.90
11650;DHT22;5881;48.522;7.682;2023-12-20T13:55:00;7.50;99.90
11650;DHT22;5881;48.522;7.682;2023-12-20T13:57:27;7.50;99.90
11650;DHT22;5881;48.522;7.682;2023-12-20T13:59:54;7.60;99.90
11650;DHT22;5881;48.522;7.682;2023-12-20T14:02:20;7.50;99.90
11650;DHT22;5881;48.522;7.682;2023-12-20T14:04:45;7.50;99.90
11650;DHT22;5881;48.522;7.682;2023-12-20T14:07:11;7.50;99.90
11650;DHT22;5881;48.522;7.682;2023-12-20T14:09:36;7.50;99.90
11650;DHT22;5881;48.522;7.682;2023-12-20T14:12:02;7.50;99.90
11650;DHT22;5881;48.522;7.682;2023-12-20T14:14:28;7.50;99.90
11650;DHT22;5881;48.522;7.682;2023-12-20T14:16:54;7.40;99.90
11650;DHT22;5881;48.522;7.682;2023-12-20T14:19:19;7.40;99.90
11650;DHT22;5881;48.522;7.682;2023-12-20T14:21:45;7.30;99.90
11650;DHT22;5881;48.522;7.682;2023-12-20T14:24:12;7.30;99.90
11650;DHT22;5881;48.522;7.682;2023-12-20T14:26:40;7.40;99.90
11650;DHT22;5881;48.522;7.682;2023-12-20T14:29:06;7.30;99.90
11650;DHT22;5881;48.522;7.682;2023-12-20T14:31:33;7.30;99.90
11650;DHT22;5881;48.522;7.682;2023-12-20T14:33:58;7.30;99.90
11650;DHT22;5881;48.522;7.682;2023-12-20T14:36:25;7.40;99.90
11650;DHT22;5881;48.522;7.682;2023-12-20T14:38:50;7.30;99.90
11650;DHT22;5881;48.522;7.682;2023-12-20T14:41:16;7.20;99.90
11650;DHT22;5881;48.522;7.682;2023-12-20T14:43:44;7.20;99.90
11650;DHT22;5881;48.522;7.682;2023-12-20T14:46:10;7.10;99.90
11650;DHT22;5881;48.522;7.682;2023-12-20T14:48:35;7.10;99.90
11650;DHT22;5881;48.522;7.682;2023-12-20T14:51:01;7.10;99.90
11650;DHT22;5881;48.522;7.682;2023-12-20T14:53:30;7.10;99.90
11650;DHT22;5881;48.522;7.682;2023-12-20T14:55:56;7.20;99.90
11650;DHT22;5881;48.522;7.682;2023-12-20T14:58:22;7.10;99.90
11650;DHT22;5881;48.522;7.682;2023-12-20T15:00:48;7.00;99.90
11650;DHT22;5881;48.522;7.682;2023-12-20T15:03:13;7.00;99.90
11650;DHT22;5881;48.522;7.682;2023-12-20T15:05:41;6.90;99.90
11650;DHT22;5881;48.522;7.682;2023-12-20T15:08:07;6.90;99.90
11650;DHT22;5881;48.522;7.682;2023-12-20T15:10:32;6.90;99.90
11650;DHT22;5881;48.522;7.682;2023-12-20T15:12:58;6.60;99.90
11650;DHT22;5881;48.522;7.682;2023-12-20T15:15:24;6.70;99.90
11650;DHT22;5881;48.522;7.682;2023-12-20T15:17:49;6.60;99.90
11650;DHT22;5881;48.522;7.682;2023-12-20T15:20:15;6.60;99.90
11650;DHT22;5881;48.522;7.682;2023-12-20T15:22:40;6.50;99.90
11650;DHT22;5881;48.522;7.682;2023-12-20T15:25:07;6.50;99.90
11650;DHT22;5881;48.522;7.682;2023-12-20T15:27:34;6.50;99.90
11650;DHT22;5881;48.522;7.682;2023-12-20T15:30:03;6.50;99.90
11650;DHT22;5881;48.522;7.682;2023-12-20T15:32:28;6.50;99.90
11650;DHT22;5881;48.522;7.682;2023-12-20T15:34:54;6.50;99.90
11650;DHT22;5881;48.522;7.682;2023-12-20T15:37:19;6.50;99.90
11650;DHT22;5881;48.522;7.682;2023-12-20T15:39:45;6.30;99.90
11650;DHT22;5881;48.522;7.682;2023-12-20T15:42:11;6.40;99.90
11650;DHT22;5881;48.522;7.682;2023-12-20T15:44:36;6.40;99.90
11650;DHT22;5881;48.522;7.682;2023-12-20T15:47:02;6.40;99.90
11650;DHT22;5881;48.522;7.682;2023-12-20T15:49:28;6.40;99.90
11650;DHT22;5881;48.522;7.682;2023-12-20T15:51:54;6.50;99.90
11650;DHT22;5881;48.522;7.682;2023-12-20T15:54:19;6.30;99.90
11650;DHT22;5881;48.522;7.682;2023-12-20T15:56:45;6.40;99.90
11650;DHT22;5881;48.522;7.682;2023-12-20T15:59:13;6.40;99.90
11650;DHT22;5881;48.522;7.682;2023-12-20T16:01:38;6.40;99.90
11650;DHT22;5881;48.522;7.682;2023-12-20T16:04:04;6.30;99.90
11650;DHT22;5881;48.522;7.682;2023-12-20T16:06:30;6.30;99.90